Airfield :
LOGIN :

Register | Disclaimer

   EN    FR    IT 

 










Legend :    VFR   Marginal VFR   IFR   Intensive IFR   Very Intensive IFR
Visi :
Ceiling :
>= 8 km
>= 3000ft
5 to 8 km
1000 to 3000 ft
1500m to 5 km
500 to 1000 ft
800 to 1500m
200 to 500 ft
< 800m
< 200 ft
Symbols :   Thunderstorms  Fog  Heavy snow  Heavy precipitations  Wind > 20 kt
SIGMETs :     Misc.  Thunderstorms  Icing  Turbulence  Mountain Waves  Volcanic Ashes






- Airport Elevation : 1260 ft
- IATA code : LDE


LFBT - Tarbes / Ossun

CURRENT METAR :
  • 271800Z AUTO 12004KT CAVOK 09/07 Q1017 NOSIG

EXPIRED METARs :
  • 271730Z AUTO 00000KT CAVOK 09/07 Q1017 NOSIG
  • 271700Z AUTO VRB01KT CAVOK 10/07 Q1018 NOSIG
  • 271630Z AUTO 06002KT CAVOK 11/07 Q1017 NOSIG
  • 271600Z AUTO VRB02KT CAVOK 12/07 Q1017 NOSIG
  • 271530Z AUTO 02004KT 340V040 CAVOK 13/09 Q1017 NOSIG

TAF TAF LFBT
Valid from the 27 at 18:00 until the 28 at 18:00 UTC


271700Z 2718/2818 VRB03KT CAVOK
PROB30
TEMPO 2720/2722 BKN023
BECMG 2723/2801 25010KT -RA BKN030
PROB40
TEMPO 2800/2807 2000 RA BKN014
BECMG 2808/2810 NSW SCT020 BKN050
PROB40
TEMPO 2810/2818 3000 RA SCT015TCU BKN040
PROB30
TEMPO 2813/2816 27015G25KT



MET'MAP, your aeronautical weather chart ! - Copyright ORBIFLY December 2007 - Disclaimer

ORBIFLY MET'MAP TEAM :

Programming & Development : Alexandra Zaïnal
Original concept : Baudouin d'Aumeries
Technical & hardware support : Manuel Goepfert
Assistance : Marc-Olivier Méhu




SOURCES & CREDITS :

   NOAA